createdAt,value
2018-03-31T00:01:19.696Z,14.61
2018-03-31T00:03:46.782Z,14.48
2018-03-31T00:06:13.805Z,14.44
2018-03-31T00:08:40.844Z,14.48
2018-03-31T00:11:07.930Z,14.49
2018-03-31T00:13:35.015Z,14.44
2018-03-31T00:16:02.168Z,14.33
2018-03-31T00:18:29.242Z,14.20
2018-03-31T00:20:56.258Z,14.09
2018-03-31T00:23:23.342Z,14.07
2018-03-31T00:25:50.431Z,14.00
2018-03-31T00:28:17.462Z,13.88
2018-03-31T00:30:44.488Z,13.80
2018-03-31T00:33:11.574Z,13.90
2018-03-31T00:35:38.590Z,13.82
2018-03-31T00:38:05.607Z,13.84
2018-03-31T00:40:32.637Z,13.93
2018-03-31T00:42:59.662Z,14.04
2018-03-31T00:45:26.736Z,14.18
2018-03-31T00:47:53.817Z,14.32
2018-03-31T00:50:20.954Z,14.41
2018-03-31T00:52:48.029Z,14.46
2018-03-31T00:55:15.074Z,14.51
2018-03-31T00:57:42.163Z,14.44
2018-03-31T01:00:09.240Z,14.51
2018-03-31T01:02:36.274Z,14.74
2018-03-31T01:05:03.291Z,15.00
2018-03-31T01:07:30.366Z,15.38
2018-03-31T01:09:57.412Z,15.41
2018-03-31T01:12:24.427Z,15.12
2018-03-31T01:14:51.458Z,14.86
2018-03-31T01:17:18.486Z,14.79
2018-03-31T01:19:45.506Z,14.61
2018-03-31T01:22:12.523Z,14.42
2018-03-31T01:24:39.682Z,14.29
2018-03-31T01:27:06.721Z,14.21
2018-03-31T01:29:33.806Z,14.10
2018-03-31T01:32:00.835Z,13.92
2018-03-31T01:34:27.845Z,13.95
2018-03-31T01:36:54.877Z,13.91
2018-03-31T01:39:21.897Z,13.79
2018-03-31T01:41:48.944Z,13.71
2018-03-31T01:44:15.966Z,13.67
2018-03-31T01:46:42.994Z,13.52
2018-03-31T01:49:10.018Z,13.50
2018-03-31T01:51:37.103Z,13.44
2018-03-31T01:54:04.126Z,13.35
2018-03-31T01:56:31.141Z,13.24
2018-03-31T01:58:58.162Z,13.13
2018-03-31T02:01:25.242Z,13.16
2018-03-31T02:03:52.330Z,13.15
2018-03-31T02:06:19.424Z,13.13
2018-03-31T02:08:46.569Z,13.06
2018-03-31T02:11:13.585Z,13.06
2018-03-31T02:13:40.604Z,13.09
2018-03-31T02:16:07.638Z,12.99
2018-03-31T02:18:34.670Z,12.96
2018-03-31T02:21:01.755Z,12.94
2018-03-31T02:23:28.848Z,12.95
2018-03-31T02:25:55.975Z,12.90
2018-03-31T02:28:22.994Z,12.80
2018-03-31T02:30:50.071Z,12.75
2018-03-31T02:33:17.138Z,12.73
2018-03-31T02:35:44.216Z,12.63
2018-03-31T02:38:11.324Z,12.55
2018-03-31T02:40:38.382Z,12.46
2018-03-31T02:43:05.459Z,12.48
2018-03-31T02:45:32.542Z,12.44
2018-03-31T02:47:59.570Z,12.35
2018-03-31T02:50:26.598Z,12.24
2018-03-31T02:52:53.618Z,12.18
2018-03-31T02:55:20.650Z,12.16
2018-03-31T02:57:47.671Z,12.14
2018-03-31T03:00:14.803Z,12.05
2018-03-31T03:02:41.844Z,12.02
2018-03-31T03:05:08.931Z,11.99
2018-03-31T03:07:36.014Z,11.96
2018-03-31T03:10:03.039Z,11.91
2018-03-31T03:12:30.066Z,11.84
2018-03-31T03:14:57.083Z,11.77
2018-03-31T03:17:24.116Z,11.72
2018-03-31T03:19:51.147Z,11.78
2018-03-31T03:22:18.223Z,11.77
2018-03-31T03:24:45.358Z,11.77
2018-03-31T03:27:12.443Z,11.75
2018-03-31T03:29:39.462Z,11.69
2018-03-31T03:32:06.482Z,11.67
2018-03-31T03:34:33.512Z,11.72
2018-03-31T03:37:00.616Z,11.80
2018-03-31T03:39:27.712Z,11.84
2018-03-31T03:41:54.760Z,11.94
2018-03-31T03:44:21.782Z,12.06
2018-03-31T03:46:48.802Z,12.22
2018-03-31T03:49:15.882Z,12.58
2018-03-31T03:51:42.954Z,12.84
2018-03-31T03:54:10.029Z,13.14
2018-03-31T03:56:37.114Z,12.98
2018-03-31T03:59:04.134Z,12.81
2018-03-31T04:01:31.153Z,12.65
2018-03-31T04:03:58.178Z,12.53
2018-03-31T04:06:25.276Z,12.45
2018-03-31T04:08:52.361Z,12.33
2018-03-31T04:11:19.397Z,12.43
2018-03-31T04:13:46.426Z,12.29
2018-03-31T04:16:13.514Z,12.25
2018-03-31T04:18:40.578Z,12.17
2018-03-31T04:21:07.605Z,12.14
2018-03-31T04:23:34.621Z,12.11
2018-03-31T04:26:01.754Z,12.07
2018-03-31T04:28:28.787Z,12.09
2018-03-31T04:30:55.838Z,12.11
2018-03-31T04:33:22.870Z,12.15
2018-03-31T04:35:49.891Z,12.27
2018-03-31T04:38:16.980Z,12.32
2018-03-31T04:40:44.058Z,12.36
2018-03-31T04:43:11.199Z,12.41
2018-03-31T04:45:38.228Z,12.46
2018-03-31T04:48:05.311Z,12.57
2018-03-31T04:50:32.350Z,12.68
2018-03-31T04:52:59.472Z,12.73
2018-03-31T04:55:26.501Z,12.71
2018-03-31T04:57:53.527Z,12.72
2018-03-31T05:00:20.663Z,12.84
2018-03-31T05:02:47.734Z,12.99
2018-03-31T05:05:14.795Z,13.19
2018-03-31T05:07:41.822Z,13.26
2018-03-31T05:10:08.908Z,13.47
2018-03-31T05:12:35.982Z,13.65
2018-03-31T05:15:03.015Z,13.91
2018-03-31T05:17:30.099Z,14.21
2018-03-31T05:19:57.175Z,14.44
2018-03-31T05:22:24.239Z,14.74
2018-03-31T05:24:51.266Z,15.05
2018-03-31T05:27:18.334Z,15.38
2018-03-31T05:29:45.422Z,15.66
2018-03-31T05:32:12.441Z,15.99
2018-03-31T05:34:39.516Z,16.50
2018-03-31T05:37:06.616Z,17.38
2018-03-31T05:39:33.652Z,18.38
2018-03-31T05:42:00.682Z,19.26
2018-03-31T05:44:27.803Z,19.71
2018-03-31T05:46:54.847Z,20.34
2018-03-31T05:49:21.873Z,20.38
2018-03-31T05:51:48.912Z,20.52
2018-03-31T05:54:16.011Z,20.44
2018-03-31T05:56:43.031Z,19.97
2018-03-31T05:59:10.061Z,19.65
2018-03-31T06:01:37.139Z,19.22
2018-03-31T06:04:04.284Z,19.23
2018-03-31T06:06:31.367Z,19.47
2018-03-31T06:08:58.498Z,19.98
2018-03-31T06:11:25.525Z,20.24
2018-03-31T06:13:52.606Z,21.12
2018-03-31T06:16:19.708Z,21.58
2018-03-31T06:18:46.729Z,21.39
2018-03-31T06:21:13.865Z,20.86
2018-03-31T06:23:40.947Z,20.78
2018-03-31T06:26:07.958Z,21.70
2018-03-31T06:28:35.004Z,22.30
2018-03-31T06:31:02.030Z,22.50
2018-03-31T06:33:29.122Z,23.27
2018-03-31T06:35:56.207Z,23.70
2018-03-31T06:38:23.351Z,23.28
2018-03-31T06:40:50.441Z,22.62
2018-03-31T06:43:17.476Z,22.65
2018-03-31T06:45:44.571Z,24.19
2018-03-31T06:48:11.586Z,25.21
2018-03-31T06:50:38.620Z,25.24
2018-03-31T06:53:05.646Z,24.92
2018-03-31T06:55:32.728Z,24.82
2018-03-31T06:57:59.816Z,25.03
2018-03-31T07:00:26.898Z,26.16
2018-03-31T07:02:53.933Z,26.71
2018-03-31T07:05:20.967Z,26.72
2018-03-31T07:07:48.063Z,25.85
2018-03-31T07:10:15.082Z,25.71
2018-03-31T07:12:42.150Z,26.03
2018-03-31T07:15:09.174Z,26.09
2018-03-31T07:17:36.259Z,25.46
2018-03-31T07:20:03.382Z,24.89
2018-03-31T07:22:30.468Z,24.76
2018-03-31T07:24:57.505Z,24.75
2018-03-31T07:27:24.558Z,24.90
2018-03-31T07:29:51.694Z,25.20
2018-03-31T07:32:18.718Z,25.58
2018-03-31T07:34:45.815Z,25.64
2018-03-31T07:37:12.842Z,25.32
2018-03-31T07:39:39.930Z,25.09
2018-03-31T07:42:06.954Z,25.18
2018-03-31T07:44:33.988Z,25.50
2018-03-31T07:47:01.073Z,25.54
2018-03-31T07:49:28.099Z,25.53
2018-03-31T07:51:55.196Z,25.73
2018-03-31T07:54:22.230Z,25.85
2018-03-31T07:56:49.265Z,25.76
2018-03-31T07:59:16.359Z,25.74
2018-03-31T08:01:43.437Z,25.56
2018-03-31T08:04:10.568Z,25.98
2018-03-31T08:06:37.590Z,26.08
2018-03-31T08:09:04.666Z,26.10
2018-03-31T08:11:31.757Z,26.53
2018-03-31T08:13:58.812Z,26.79
2018-03-31T08:16:25.907Z,26.71
2018-03-31T08:18:53.582Z,26.38
2018-03-31T08:21:20.679Z,26.23
2018-03-31T08:23:47.780Z,26.44
2018-03-31T08:26:14.869Z,26.61
2018-03-31T08:28:41.906Z,26.64
2018-03-31T08:31:08.935Z,26.96
2018-03-31T08:33:35.958Z,27.07
2018-03-31T08:36:03.034Z,27.47
2018-03-31T08:38:30.103Z,28.21
2018-03-31T08:40:57.136Z,28.42
2018-03-31T08:43:24.163Z,28.15
2018-03-31T08:45:51.251Z,28.22
2018-03-31T08:48:18.289Z,28.08
2018-03-31T08:50:45.318Z,28.22
2018-03-31T08:53:12.342Z,28.25
2018-03-31T08:55:39.413Z,28.06
2018-03-31T08:58:06.488Z,28.10
2018-03-31T09:00:33.557Z,28.32
2018-03-31T09:03:00.587Z,28.83
2018-03-31T09:05:27.613Z,29.54
2018-03-31T09:07:54.707Z,29.86
2018-03-31T09:10:21.729Z,30.01
2018-03-31T09:12:48.811Z,30.32
2018-03-31T09:15:15.891Z,30.69
2018-03-31T09:17:42.912Z,30.80
2018-03-31T09:20:09.938Z,30.81
2018-03-31T09:22:36.963Z,31.16
2018-03-31T09:25:04.098Z,31.42
2018-03-31T09:27:31.183Z,31.35
2018-03-31T09:29:58.275Z,31.25
2018-03-31T09:32:25.355Z,31.39
2018-03-31T09:34:52.375Z,31.34
2018-03-31T09:37:19.403Z,31.52
2018-03-31T09:39:46.490Z,31.28
2018-03-31T09:42:13.588Z,31.22
2018-03-31T09:44:40.611Z,31.26
2018-03-31T09:47:07.700Z,31.34
2018-03-31T09:49:34.720Z,31.55
2018-03-31T09:52:01.806Z,31.69
2018-03-31T09:54:28.895Z,31.78
2018-03-31T09:56:55.923Z,31.50
2018-03-31T09:59:22.958Z,31.41
2018-03-31T10:01:49.976Z,30.60
2018-03-31T10:04:17.064Z,30.48
2018-03-31T10:06:44.090Z,30.44
2018-03-31T10:09:11.110Z,30.46
2018-03-31T10:11:38.199Z,30.13
2018-03-31T10:14:05.279Z,30.49
2018-03-31T10:16:32.371Z,30.27
2018-03-31T10:18:59.459Z,30.21
2018-03-31T10:21:26.529Z,30.09
2018-03-31T10:23:53.611Z,30.07
2018-03-31T10:26:20.699Z,30.45
2018-03-31T10:28:47.786Z,30.82
2018-03-31T10:31:14.806Z,31.15
2018-03-31T10:33:41.842Z,31.24
2018-03-31T10:36:08.918Z,31.41
2018-03-31T10:38:36.062Z,31.94
2018-03-31T10:41:04.017Z,32.36
2018-03-31T10:43:31.037Z,31.62
2018-03-31T10:45:59.292Z,31.93
2018-03-31T10:48:26.391Z,31.88
2018-03-31T10:50:53.443Z,32.08
2018-03-31T10:53:20.478Z,31.81
2018-03-31T10:55:47.734Z,31.23
2018-03-31T10:58:14.750Z,31.23
2018-03-31T11:00:41.788Z,32.02
2018-03-31T11:03:08.888Z,31.79
2018-03-31T11:05:36.020Z,31.59
2018-03-31T11:08:03.043Z,31.75
2018-03-31T11:10:30.063Z,31.66
2018-03-31T11:12:57.166Z,31.72
2018-03-31T11:15:24.311Z,31.80
2018-03-31T11:17:51.331Z,32.07
2018-03-31T11:20:18.363Z,32.20
2018-03-31T11:22:45.389Z,32.83
2018-03-31T11:25:12.475Z,33.18
2018-03-31T11:27:39.563Z,33.58
2018-03-31T11:30:06.640Z,32.88
2018-03-31T11:32:33.676Z,33.23
2018-03-31T11:35:00.703Z,33.60
2018-03-31T11:37:27.732Z,33.29
2018-03-31T11:39:54.810Z,33.65
2018-03-31T11:42:21.869Z,32.78
2018-03-31T11:44:48.894Z,32.58
2018-03-31T11:47:16.039Z,32.85
2018-03-31T11:49:43.130Z,32.46
2018-03-31T11:52:10.155Z,32.08
2018-03-31T11:54:37.256Z,32.01
2018-03-31T11:57:04.285Z,31.59
2018-03-31T11:59:31.312Z,30.71
2018-03-31T12:01:58.378Z,30.65
2018-03-31T12:04:25.468Z,30.85
2018-03-31T12:06:52.490Z,30.64
2018-03-31T12:09:19.517Z,31.32
2018-03-31T12:11:46.570Z,32.24
2018-03-31T12:14:13.659Z,32.56
2018-03-31T12:16:40.686Z,32.31
2018-03-31T12:19:07.767Z,32.50
2018-03-31T12:21:34.909Z,32.26
2018-03-31T12:24:01.991Z,32.69
2018-03-31T12:26:29.014Z,33.41
2018-03-31T12:28:56.117Z,33.97
2018-03-31T12:31:23.141Z,33.52
2018-03-31T12:33:50.169Z,33.03
2018-03-31T12:36:17.196Z,32.35
2018-03-31T12:38:44.274Z,30.93
2018-03-31T12:41:11.290Z,30.04
2018-03-31T12:43:38.389Z,29.71
2018-03-31T12:46:05.507Z,29.31
2018-03-31T12:48:32.538Z,28.85
2018-03-31T12:50:59.570Z,28.49
2018-03-31T12:53:26.585Z,28.31
2018-03-31T12:55:53.669Z,27.86
2018-03-31T12:58:20.685Z,27.73
2018-03-31T13:00:47.702Z,27.66
2018-03-31T13:03:14.727Z,27.42
2018-03-31T13:05:41.752Z,27.28
2018-03-31T13:08:08.839Z,27.15
2018-03-31T13:10:35.873Z,27.20
2018-03-31T13:13:03.006Z,27.09
2018-03-31T13:15:30.027Z,27.14
2018-03-31T13:17:57.047Z,27.14
2018-03-31T13:20:24.151Z,27.04
2018-03-31T13:22:51.179Z,26.82
2018-03-31T13:25:18.209Z,26.70
2018-03-31T13:27:45.298Z,26.64
2018-03-31T13:30:12.391Z,26.61
2018-03-31T13:32:40.379Z,26.54
2018-03-31T13:35:07.406Z,26.53
2018-03-31T13:37:34.452Z,26.53
2018-03-31T13:40:01.470Z,26.57
2018-03-31T13:42:28.497Z,26.46
2018-03-31T13:44:55.576Z,26.35
2018-03-31T13:47:22.662Z,26.22
2018-03-31T13:49:49.753Z,26.08
2018-03-31T13:52:16.770Z,26.09
2018-03-31T13:54:43.803Z,26.01
2018-03-31T13:57:10.834Z,26.00
2018-03-31T13:59:37.874Z,25.84
2018-03-31T14:02:04.897Z,25.68
2018-03-31T14:04:31.979Z,25.50
2018-03-31T14:06:59.058Z,25.51
2018-03-31T14:09:26.127Z,25.37
2018-03-31T14:11:53.158Z,25.37
2018-03-31T14:14:20.237Z,25.27
2018-03-31T14:16:47.265Z,25.14
2018-03-31T14:19:14.282Z,25.06
2018-03-31T14:21:41.359Z,24.84
2018-03-31T14:24:08.440Z,24.68
2018-03-31T14:26:35.454Z,24.34
2018-03-31T14:29:02.497Z,24.22
2018-03-31T14:31:29.515Z,24.08
2018-03-31T14:33:56.607Z,23.79
2018-03-31T14:36:23.687Z,23.70
2018-03-31T14:38:50.770Z,23.62
2018-03-31T14:41:17.854Z,23.45
2018-03-31T14:43:44.870Z,23.53
2018-03-31T14:46:11.894Z,23.51
2018-03-31T14:48:38.912Z,23.48
2018-03-31T14:51:06.003Z,23.29
2018-03-31T14:53:33.096Z,23.33
2018-03-31T14:56:00.174Z,23.36
2018-03-31T14:58:27.206Z,23.32
2018-03-31T15:00:55.162Z,23.19
2018-03-31T15:03:22.194Z,23.18
2018-03-31T15:05:49.213Z,23.14
2018-03-31T15:08:16.313Z,23.03
2018-03-31T15:10:43.338Z,22.96
2018-03-31T15:13:10.416Z,22.82
2018-03-31T15:15:37.433Z,22.72
2018-03-31T15:18:04.510Z,22.65
2018-03-31T15:20:31.553Z,22.54
2018-03-31T15:22:58.572Z,22.46
2018-03-31T15:25:25.598Z,22.37
2018-03-31T15:27:52.678Z,22.25
2018-03-31T15:30:19.801Z,22.19
2018-03-31T15:32:46.866Z,22.11
2018-03-31T15:35:13.956Z,21.99
2018-03-31T15:37:41.053Z,21.93
2018-03-31T15:40:08.195Z,21.82
2018-03-31T15:42:35.272Z,21.70
2018-03-31T15:45:02.359Z,21.61
2018-03-31T15:47:29.496Z,21.58
2018-03-31T15:49:56.525Z,21.47
2018-03-31T15:52:23.541Z,21.35
2018-03-31T15:54:50.576Z,21.24
2018-03-31T15:57:17.634Z,21.12
2018-03-31T15:59:44.727Z,21.07
2018-03-31T16:02:11.746Z,20.94
2018-03-31T16:04:38.822Z,20.94
2018-03-31T16:07:05.848Z,20.81
2018-03-31T16:09:32.865Z,20.82
2018-03-31T16:11:59.976Z,20.76
2018-03-31T16:14:27.059Z,20.67
2018-03-31T16:16:54.147Z,20.54
2018-03-31T16:19:21.162Z,20.45
2018-03-31T16:21:48.250Z,20.43
2018-03-31T16:24:15.270Z,20.33
2018-03-31T16:26:42.282Z,20.18
2018-03-31T16:29:09.310Z,20.09
2018-03-31T16:31:36.331Z,20.00
2018-03-31T16:34:03.359Z,19.95
2018-03-31T16:36:30.494Z,19.92
2018-03-31T16:38:57.579Z,19.93
2018-03-31T16:41:24.640Z,19.92
2018-03-31T16:43:51.718Z,19.82
2018-03-31T16:46:18.743Z,19.78
2018-03-31T16:48:45.765Z,19.67
2018-03-31T16:51:12.817Z,19.58
2018-03-31T16:53:39.902Z,19.50
2018-03-31T16:56:07.037Z,19.46
2018-03-31T16:58:34.066Z,19.44
2018-03-31T17:01:01.090Z,19.49
2018-03-31T17:03:28.120Z,19.54
2018-03-31T17:05:55.298Z,19.60
2018-03-31T17:08:22.395Z,19.54
2018-03-31T17:10:49.428Z,19.49
2018-03-31T17:13:16.503Z,19.55
2018-03-31T17:15:50.444Z,19.58
2018-03-31T17:18:17.552Z,19.56
2018-03-31T17:20:44.584Z,19.54
2018-03-31T17:23:11.605Z,19.61
2018-03-31T17:25:38.644Z,19.59
2018-03-31T17:28:05.797Z,19.51
2018-03-31T17:30:32.832Z,19.58
2018-03-31T17:32:59.991Z,19.55
2018-03-31T17:35:28.141Z,19.56
2018-03-31T17:37:55.223Z,19.53
2018-03-31T17:40:22.304Z,19.54
2018-03-31T17:42:49.395Z,19.50
2018-03-31T17:45:16.395Z,19.55
2018-03-31T17:47:43.422Z,19.49
2018-03-31T17:50:10.450Z,19.58
2018-03-31T17:52:37.609Z,19.54
2018-03-31T17:55:04.633Z,19.57
2018-03-31T17:57:31.730Z,19.59
2018-03-31T17:59:58.819Z,19.62
2018-03-31T18:02:25.923Z,19.54
2018-03-31T18:04:53.043Z,19.56
2018-03-31T18:07:20.102Z,19.55
2018-03-31T18:09:47.178Z,19.57
2018-03-31T18:12:14.208Z,19.59
2018-03-31T18:14:41.231Z,19.59
2018-03-31T18:17:08.258Z,19.58
2018-03-31T18:19:35.282Z,19.46
2018-03-31T18:22:05.520Z,19.49
2018-03-31T18:24:32.560Z,19.49
2018-03-31T18:26:59.646Z,19.52
2018-03-31T18:29:26.656Z,19.58
2018-03-31T18:31:53.679Z,19.62
2018-03-31T18:34:20.743Z,19.58
2018-03-31T18:36:47.768Z,19.50
2018-03-31T18:39:14.816Z,19.52
2018-03-31T18:41:41.837Z,19.37
2018-03-31T18:44:08.909Z,19.41
2018-03-31T18:46:35.932Z,19.34
2018-03-31T18:49:03.012Z,19.32
2018-03-31T18:51:30.086Z,19.35
2018-03-31T18:53:57.106Z,19.41
2018-03-31T18:56:24.130Z,19.52
2018-03-31T18:58:51.224Z,19.60
2018-03-31T19:01:18.299Z,19.64
2018-03-31T19:03:45.313Z,19.64
2018-03-31T19:06:12.395Z,19.67
2018-03-31T19:08:39.497Z,19.72
2018-03-31T19:11:06.528Z,19.68
2018-03-31T19:13:33.556Z,19.69
2018-03-31T19:16:00.581Z,19.59
2018-03-31T19:18:27.662Z,19.62
2018-03-31T19:20:54.698Z,19.60
2018-03-31T19:23:21.718Z,19.55
2018-03-31T19:25:48.857Z,19.52
2018-03-31T19:28:15.887Z,19.39
2018-03-31T19:30:48.454Z,19.35
2018-03-31T19:33:15.532Z,19.30
2018-03-31T19:35:48.166Z,19.28
2018-03-31T19:38:15.249Z,19.34
2018-03-31T19:40:42.334Z,19.39
2018-03-31T19:43:09.381Z,19.40
2018-03-31T19:45:36.397Z,19.46
2018-03-31T19:48:03.483Z,19.48
2018-03-31T19:50:30.513Z,19.31
2018-03-31T19:52:57.560Z,19.32
2018-03-31T19:55:24.661Z,19.27
2018-03-31T19:57:51.743Z,19.17
2018-03-31T20:00:18.770Z,19.14
2018-03-31T20:02:45.786Z,19.13
2018-03-31T20:05:12.827Z,19.08
2018-03-31T20:07:39.915Z,18.97
2018-03-31T20:10:07.013Z,18.95
2018-03-31T20:12:34.027Z,18.83
2018-03-31T20:15:01.098Z,18.78
2018-03-31T20:17:28.121Z,18.70
2018-03-31T20:19:55.146Z,18.68
2018-03-31T20:22:22.180Z,18.71
2018-03-31T20:24:49.301Z,18.76
2018-03-31T20:27:16.345Z,18.87
2018-03-31T20:29:43.383Z,19.06
2018-03-31T20:32:10.541Z,19.11
2018-03-31T20:34:37.668Z,19.06
2018-03-31T20:37:04.691Z,19.02
2018-03-31T20:39:31.721Z,19.06
2018-03-31T20:41:58.742Z,18.98
2018-03-31T20:44:25.767Z,19.06
2018-03-31T20:46:52.790Z,19.15
2018-03-31T20:49:19.881Z,19.18
2018-03-31T20:51:46.898Z,19.14
2018-03-31T20:54:13.965Z,19.07
2018-03-31T20:56:40.987Z,19.07
2018-03-31T20:59:08.015Z,19.14
2018-03-31T21:01:35.074Z,19.12
2018-03-31T21:04:02.103Z,19.05
2018-03-31T21:06:29.140Z,19.11
2018-03-31T21:08:56.223Z,19.13
2018-03-31T21:11:23.258Z,19.12
2018-03-31T21:13:50.286Z,19.05
2018-03-31T21:16:17.327Z,19.04
2018-03-31T21:18:44.391Z,19.10
2018-03-31T21:21:11.490Z,19.01
2018-03-31T21:23:38.509Z,18.93
2018-03-31T21:26:05.538Z,18.89
2018-03-31T21:28:32.558Z,18.93
2018-03-31T21:30:59.578Z,18.96
2018-03-31T21:33:26.616Z,18.99
2018-03-31T21:35:53.648Z,18.98
2018-03-31T21:38:20.673Z,19.05
2018-03-31T21:40:47.694Z,19.06
2018-03-31T21:43:14.824Z,19.12
2018-03-31T21:45:41.902Z,19.01
2018-03-31T21:48:08.923Z,18.95
2018-03-31T21:50:36.043Z,18.89
2018-03-31T21:53:03.039Z,18.80
2018-03-31T21:55:30.124Z,18.73
2018-03-31T21:57:57.142Z,18.57
2018-03-31T22:00:24.204Z,18.39
2018-03-31T22:02:51.225Z,18.21
2018-03-31T22:05:18.246Z,18.02
2018-03-31T22:07:45.263Z,17.96
2018-03-31T22:10:12.347Z,18.00
2018-03-31T22:12:39.370Z,17.99
2018-03-31T22:15:12.006Z,17.93
2018-03-31T22:17:39.070Z,18.00
2018-03-31T22:20:06.157Z,18.09
2018-03-31T22:22:33.191Z,18.12
2018-03-31T22:25:00.267Z,18.09
2018-03-31T22:27:27.295Z,18.09
2018-03-31T22:29:54.314Z,17.93
2018-03-31T22:32:21.346Z,17.88
2018-03-31T22:34:48.368Z,17.87
2018-03-31T22:37:15.454Z,17.84
2018-03-31T22:39:42.538Z,17.91
2018-03-31T22:42:09.562Z,17.96
2018-03-31T22:44:36.648Z,17.89
2018-03-31T22:47:03.671Z,17.84
2018-03-31T22:49:30.754Z,17.86
2018-03-31T22:51:57.833Z,17.85
2018-03-31T22:54:24.874Z,17.87
2018-03-31T22:56:51.889Z,17.88
2018-03-31T22:59:19.030Z,17.88
2018-03-31T23:01:46.124Z,17.88
2018-03-31T23:04:13.214Z,17.91
2018-03-31T23:06:40.246Z,17.95
2018-03-31T23:09:07.339Z,17.87
2018-03-31T23:11:34.418Z,17.84
2018-03-31T23:14:01.442Z,17.83
2018-03-31T23:16:28.564Z,17.83
2018-03-31T23:18:55.704Z,17.75
2018-03-31T23:21:22.817Z,17.75
2018-03-31T23:23:49.914Z,17.75
2018-03-31T23:26:16.955Z,17.73
2018-03-31T23:28:44.030Z,17.78
2018-03-31T23:31:11.111Z,17.81
2018-03-31T23:33:38.140Z,17.76
2018-03-31T23:36:05.171Z,17.80
2018-03-31T23:38:32.200Z,17.79
2018-03-31T23:40:59.233Z,17.80
2018-03-31T23:43:26.286Z,17.92
2018-03-31T23:45:53.387Z,17.93
2018-03-31T23:48:20.462Z,17.82
2018-03-31T23:50:47.486Z,17.76
2018-03-31T23:53:14.518Z,17.71
2018-03-31T23:55:41.598Z,17.72
2018-03-31T23:58:08.677Z,17.73
